| time (UTC) | temp C | wind direction | speed KPH | gust KPH | rain 1hr cm | rain 24hr cm | rain mn cm | humidity % | barometer mb |
| 20260509143944 | 15 | 154 | 1.6 | 3.2 | 0.00 | 0.00 | 0.00 | 73 | 1010.8 |
| 20260509143442 | 15 | 294 | 0.0 | 0.0 | 0.00 | 0.00 | 0.00 | 74 | 1010.8 |
| 20260509142938 | 15 | 75 | 3.2 | 3.2 | 0.00 | 0.00 | 0.00 | 73 | 1010.7 |
| 20260509142434 | 15 | 105 | 3.2 | 3.2 | 0.00 | 0.00 | 0.00 | 74 | 1010.7 |
| 20260509141930 | 15 | 49 | 0.0 | 0.0 | 0.00 | 0.00 | 0.00 | 75 | 1010.6 |
| 20260509141427 | 15 | 48 | 1.6 | 3.2 | 0.00 | 0.00 | 0.00 | 75 | 1010.5 |
| 20260509140924 | 15 | 265 | 0.0 | 0.0 | 0.00 | 0.00 | 0.00 | 75 | 1010.8 |
| 20260509140420 | 15 | 266 | 0.0 | 0.0 | 0.00 | 0.00 | 0.00 | 76 | 1010.9 |
| 20260509135919 | 15 | 235 | 3.2 | 4.8 | 0.00 | 0.00 | 0.00 | 76 | 1010.9 |
| 20260509135416 | 15 | 235 | 3.2 | 4.8 | 0.00 | 0.00 | 0.00 | 76 | 1010.9 |
| 20260509134913 | 15 | 228 | 1.6 | 3.2 | 0.00 | 0.00 | 0.00 | 77 | 1010.9 |
| 20260509134410 | -17 | 0.0 | 0.0 | 0.00 | 0.00 | 0.00 | 1010.6 | ||
| 20260509133907 | -17 | 0.0 | 0.0 | 0.00 | 0.00 | 0.00 | 1010.7 | ||
| 20260509133404 | -17 | 0.0 | 0.0 | 0.00 | 0.00 | 0.00 | 1010.8 | ||
| 20260509132903 | -17 | 0.0 | 0.0 | 0.00 | 0.00 | 0.00 | 1010.9 | ||
| 20260509132400 | -17 | 0.0 | 0.0 | 0.00 | 0.00 | 0.00 | 1010.9 | ||
| 20260509131857 | -17 | 0.0 | 0.0 | 0.00 | 0.00 | 0.00 | 1010.8 | ||
| 20260509131354 | -17 | 0.0 | 0.0 | 0.00 | 0.00 | 0.00 | 1011.1 | ||
| 20260509130851 | 11 | 278 | 0.0 | 0.0 | 0.00 | 0.00 | 0.00 | 92 | 1011.2 |
| 20260509130346 | 11 | 278 | 0.0 | 0.0 | 0.00 | 0.00 | 0.00 | 92 | 1011.2 |
| 20260509125843 | -17 | 0.0 | 0.0 | 0.00 | 0.00 | 0.00 | 1011.2 | ||
| 20260509125339 | -17 | 0.0 | 0.0 | 0.00 | 0.00 | 0.00 | 1011.2 | ||
| 20260509124836 | -17 | 0.0 | 0.0 | 0.00 | 0.00 | 0.00 | 1011.4 | ||
| 20260509124333 | -17 | 0.0 | 0.0 | 0.00 | 0.00 | 0.00 | 1011.4 | ||
| 20260509123831 | 11 | 278 | 0.0 | 0.0 | 0.00 | 0.00 | 0.00 | 92 | 1011.5 |
| 20260509123327 | 11 | 278 | 0.0 | 0.0 | 0.00 | 0.00 | 0.00 | 92 | 1011.5 |
| 20260509122823 | 11 | 278 | 0.0 | 0.0 | 0.00 | 0.00 | 0.00 | 93 | 1011.4 |
| 20260509122320 | 11 | 278 | 0.0 | 0.0 | 0.00 | 0.00 | 0.00 | 93 | 1011.4 |
| 20260509121817 | 11 | 278 | 0.0 | 0.0 | 0.00 | 0.00 | 0.00 | 94 | 1011.3 |
| 20260509121314 | 11 | 278 | 0.0 | 0.0 | 0.00 | 0.00 | 0.00 | 94 | 1011.3 |
| 20260509120813 | 11 | 278 | 0.0 | 0.0 | 0.00 | 0.00 | 0.00 | 94 | 1011.3 |
| 20260509120310 | 11 | 278 | 0.0 | 0.0 | 0.00 | 0.00 | 0.00 | 94 | 1011.3 |
| 20260509115808 | 10 | 274 | 0.0 | 0.0 | 0.00 | 0.00 | 0.00 | 94 | 1011.2 |
| 20260509115307 | 10 | 274 | 0.0 | 0.0 | 0.00 | 0.00 | 0.00 | 94 | 1011.3 |
| 20260509114803 | 10 | 274 | 0.0 | 0.0 | 0.00 | 0.00 | 0.00 | 95 | 1011.3 |
| 20260509114301 | 10 | 256 | 0.0 | 0.0 | 0.00 | 0.00 | 0.00 | 94 | 1011.1 |
| 20260509113800 | 10 | 256 | 0.0 | 0.0 | 0.00 | 0.00 | 0.00 | 94 | 1011.1 |
| 20260509113256 | 10 | 256 | 0.0 | 0.0 | 0.00 | 0.00 | 0.00 | 94 | 1011.1 |
| 20260509112753 | 10 | 310 | 0.0 | 0.0 | 0.00 | 0.00 | 0.00 | 94 | 1010.8 |
| 20260509112250 | 10 | 310 | 1.6 | 1.6 | 0.00 | 0.00 | 0.00 | 94 | 1010.9 |
| 20260509111747 | 10 | 310 | 1.6 | 1.6 | 0.00 | 0.00 | 0.00 | 94 | 1010.8 |
| 20260509111244 | 10 | 310 | 0.0 | 0.0 | 0.00 | 0.00 | 0.00 | 93 | 1010.7 |
| 20260509110742 | 10 | 310 | 0.0 | 0.0 | 0.00 | 0.00 | 0.00 | 93 | 1010.9 |
| 20260509110238 | 10 | 310 | 0.0 | 0.0 | 0.00 | 0.00 | 0.00 | 93 | 1010.9 |
| 20260509105736 | 10 | 309 | 0.0 | 0.0 | 0.00 | 0.00 | 0.00 | 93 | 1010.7 |
| 20260509105234 | 10 | 310 | 0.0 | 0.0 | 0.00 | 0.00 | 0.00 | 92 | 1010.7 |
| 20260509104730 | 10 | 310 | 0.0 | 0.0 | 0.00 | 0.00 | 0.00 | 92 | 1010.8 |
| 20260509104227 | 10 | 310 | 0.0 | 0.0 | 0.00 | 0.00 | 0.00 | 92 | 1010.7 |
| 20260509103726 | 10 | 310 | 0.0 | 0.0 | 0.00 | 0.00 | 0.00 | 93 | 1010.7 |
| 20260509103222 | -17 | 0.0 | 0.0 | 0.00 | 0.00 | 0.00 | 1010.9 | ||
| 20260509102721 | -17 | 0.0 | 0.0 | 0.00 | 0.00 | 0.00 | 1010.8 | ||
| 20260509102217 | -17 | 0.0 | 0.0 | 0.00 | 0.00 | 0.00 | 1010.8 | ||
| 20260509101714 | -17 | 0.0 | 0.0 | 0.00 | 0.00 | 0.00 | 1010.7 | ||
| 20260509101210 | 10 | 310 | 0.0 | 0.0 | 0.00 | 0.00 | 0.00 | 94 | 1010.9 |
| 20260509100708 | 10 | 310 | 0.0 | 0.0 | 0.00 | 0.00 | 0.00 | 94 | 1010.7 |
| 20260509100205 | 10 | 310 | 0.0 | 0.0 | 0.00 | 0.00 | 0.00 | 93 | 1010.7 |
| 20260509095702 | 10 | 310 | 0.0 | 0.0 | 0.00 | 0.00 | 0.00 | 92 | 1010.7 |
| 20260509095159 | 10 | 310 | 0.0 | 0.0 | 0.00 | 0.00 | 0.00 | 92 | 1010.8 |
| 20260509094655 | 10 | 310 | 0.0 | 0.0 | 0.00 | 0.00 | 0.00 | 92 | 1010.5 |
| 20260509094152 | 10 | 310 | 0.0 | 0.0 | 0.00 | 0.00 | 0.00 | 92 | 1010.7 |
| 20260509093651 | 10 | 309 | 0.0 | 0.0 | 0.00 | 0.00 | 0.00 | 91 | 1010.7 |
| 20260509093147 | 10 | 309 | 0.0 | 0.0 | 0.00 | 0.00 | 0.00 | 91 | 1010.9 |
| 20260509092646 | 10 | 309 | 0.0 | 0.0 | 0.00 | 0.00 | 0.00 | 92 | 1010.6 |
| 20260509092143 | 10 | 309 | 0.0 | 0.0 | 0.00 | 0.00 | 0.00 | 92 | 1010.9 |
| 20260509091641 | 10 | 309 | 0.0 | 0.0 | 0.00 | 0.00 | 0.00 | 91 | 1011.1 |
| 20260509091136 | 10 | 309 | 0.0 | 0.0 | 0.00 | 0.00 | 0.00 | 91 | 1010.8 |
| 20260509090635 | 10 | 309 | 0.0 | 0.0 | 0.00 | 0.00 | 0.00 | 92 | 1010.9 |
| 20260509090131 | 10 | 309 | 0.0 | 0.0 | 0.00 | 0.00 | 0.00 | 92 | 1010.8 |
| 20260509085629 | 10 | 309 | 0.0 | 0.0 | 0.00 | 0.00 | 0.00 | 93 | 1011.3 |
| 20260509085124 | 10 | 309 | 0.0 | 0.0 | 0.00 | 0.00 | 0.00 | 93 | 1011.1 |
| 20260509084622 | 10 | 310 | 0.0 | 0.0 | 0.00 | 0.00 | 0.00 | 91 | 1011.3 |
| 20260509084119 | 10 | 310 | 0.0 | 0.0 | 0.00 | 0.00 | 0.00 | 91 | 1010.9 |
| 20260509083616 | 10 | 310 | 0.0 | 0.0 | 0.00 | 0.00 | 0.00 | 92 | 1011.3 |
| 20260509083112 | -17 | 0.0 | 0.0 | 0.00 | 0.00 | 0.00 | 1011.1 | ||
| 20260509082611 | -17 | 0.0 | 0.0 | 0.00 | 0.00 | 0.00 | 1011.4 | ||
| 20260509082107 | 11 | 310 | 0.0 | 0.0 | 0.00 | 0.00 | 0.00 | 91 | 1011.4 |
| 20260509081605 | 11 | 310 | 0.0 | 0.0 | 0.00 | 0.00 | 0.00 | 91 | 1011.3 |
| 20260509081102 | 11 | 310 | 0.0 | 0.0 | 0.00 | 0.00 | 0.00 | 91 | 1011.2 |
| 20260509080600 | 11 | 310 | 0.0 | 0.0 | 0.00 | 0.00 | 0.00 | 91 | 1011.1 |
| 20260509080057 | 11 | 309 | 0.0 | 0.0 | 0.00 | 0.00 | 0.00 | 91 | 1011.2 |
| 20260509075554 | 11 | 309 | 0.0 | 0.0 | 0.00 | 0.00 | 0.00 | 92 | 1011.1 |
| 20260509075052 | 11 | 310 | 0.0 | 0.0 | 0.00 | 0.00 | 0.00 | 91 | 1011.3 |
| 20260509074549 | 11 | 310 | 0.0 | 0.0 | 0.00 | 0.00 | 0.00 | 92 | 1011.1 |
| 20260509074045 | 11 | 310 | 0.0 | 1.6 | 0.00 | 0.00 | 0.00 | 92 | 1011.2 |
| 20260509073542 | 11 | 310 | 0.0 | 1.6 | 0.00 | 0.00 | 0.00 | 92 | 1011.4 |
| 20260509073038 | 11 | 144 | 0.0 | 0.0 | 0.00 | 0.00 | 0.00 | 92 | 1010.9 |
| 20260509072535 | 11 | 144 | 0.0 | 0.0 | 0.00 | 0.00 | 0.00 | 92 | 1011.3 |
| 20260509072032 | 11 | 144 | 0.0 | 0.0 | 0.00 | 0.00 | 0.00 | 92 | 1010.7 |
| 20260509071528 | 11 | 144 | 0.0 | 0.0 | 0.00 | 0.00 | 0.00 | 89 | 1010.6 |
| 20260509071026 | 11 | 144 | 0.0 | 0.0 | 0.00 | 0.00 | 0.00 | 89 | 1010.7 |
| 20260509070523 | 11 | 144 | 0.0 | 0.0 | 0.00 | 0.00 | 0.00 | 89 | 1010.6 |
| 20260509070019 | 11 | 144 | 0.0 | 0.0 | 0.00 | 0.00 | 0.00 | 90 | 1010.5 |
| 20260509065514 | 11 | 144 | 0.0 | 0.0 | 0.00 | 0.00 | 0.00 | 90 | 1010.5 |
| 20260509065011 | 11 | 144 | 0.0 | 0.0 | 0.00 | 0.00 | 0.00 | 90 | 1010.5 |
| 20260509064509 | 11 | 144 | 0.0 | 0.0 | 0.00 | 0.00 | 0.00 | 90 | 1010.4 |
| 20260509064007 | 11 | 144 | 0.0 | 0.0 | 0.00 | 0.00 | 0.00 | 91 | 1010.6 |
| 20260509063502 | 11 | 144 | 0.0 | 0.0 | 0.00 | 0.00 | 0.00 | 91 | 1010.6 |
| 20260509062959 | 11 | 144 | 0.0 | 0.0 | 0.00 | 0.00 | 0.00 | 89 | 1010.5 |
| 20260509062456 | 11 | 144 | 0.0 | 0.0 | 0.00 | 0.00 | 0.00 | 88 | 1010.6 |
| 20260509061954 | 11 | 144 | 0.0 | 0.0 | 0.00 | 0.00 | 0.00 | 88 | 1010.6 |
| 20260509061451 | 11 | 144 | 0.0 | 0.0 | 0.00 | 0.00 | 0.00 | 88 | 1010.7 |
| 20260509060948 | 11 | 144 | 0.0 | 0.0 | 0.00 | 0.00 | 0.00 | 88 | 1010.6 |
| 20260509060446 | 11 | 144 | 0.0 | 0.0 | 0.00 | 0.00 | 0.00 | 88 | 1010.7 |
| 20260509055941 | 11 | 144 | 0.0 | 0.0 | 0.00 | 0.00 | 0.00 | 89 | 1010.7 |
| 20260509055436 | 11 | 144 | 0.0 | 0.0 | 0.00 | 0.00 | 0.00 | 88 | 1010.9 |
| 20260509054933 | 11 | 144 | 0.0 | 0.0 | 0.00 | 0.00 | 0.00 | 88 | 1011.2 |
| 20260509054430 | 11 | 144 | 0.0 | 0.0 | 0.00 | 0.00 | 0.00 | 90 | 1010.8 |
| 20260509053928 | 11 | 144 | 0.0 | 0.0 | 0.00 | 0.00 | 0.00 | 88 | 1011.1 |
| 20260509053426 | 11 | 144 | 0.0 | 0.0 | 0.00 | 0.00 | 0.00 | 89 | 1011.1 |
| 20260509052923 | 11 | 144 | 0.0 | 0.0 | 0.00 | 0.00 | 0.00 | 89 | 1010.9 |
| 20260509052420 | 11 | 144 | 0.0 | 0.0 | 0.00 | 0.00 | 0.00 | 90 | 1011.1 |
| 20260509051918 | 11 | 144 | 0.0 | 0.0 | 0.00 | 0.00 | 0.00 | 88 | 1011.3 |
| 20260509051416 | 11 | 144 | 0.0 | 0.0 | 0.00 | 0.00 | 0.00 | 88 | 1011.2 |
| 20260509050912 | 11 | 144 | 0.0 | 0.0 | 0.00 | 0.00 | 0.00 | 87 | 1010.9 |
| 20260509050409 | 11 | 144 | 0.0 | 0.0 | 0.00 | 0.00 | 0.00 | 86 | 1011.1 |
| 20260509045906 | 11 | 144 | 0.0 | 0.0 | 0.00 | 0.00 | 0.00 | 85 | 1010.8 |
| 20260509045403 | 11 | 144 | 0.0 | 0.0 | 0.00 | 0.00 | 0.00 | 86 | 1011.1 |
| 20260509044900 | 11 | 144 | 0.0 | 0.0 | 0.00 | 0.00 | 0.00 | 88 | 1011.1 |
| 20260509044358 | 11 | 144 | 0.0 | 0.0 | 0.00 | 0.00 | 0.00 | 89 | 1010.9 |
| 20260509043854 | 11 | 144 | 0.0 | 0.0 | 0.00 | 0.00 | 0.00 | 89 | 1011.1 |
| 20260509043350 | 11 | 144 | 0.0 | 0.0 | 0.00 | 0.00 | 0.00 | 88 | 1011.2 |
| 20260509042846 | 11 | 144 | 0.0 | 0.0 | 0.00 | 0.00 | 0.00 | 86 | 1011.2 |
| 20260509042343 | 11 | 144 | 0.0 | 0.0 | 0.00 | 0.00 | 0.00 | 85 | 1011.4 |
| 20260509041840 | 11 | 144 | 0.0 | 0.0 | 0.00 | 0.00 | 0.00 | 87 | 1011.2 |
| 20260509041336 | 11 | 144 | 0.0 | 0.0 | 0.00 | 0.00 | 0.00 | 90 | 1011.2 |
| 20260509040835 | 11 | 144 | 0.0 | 0.0 | 0.00 | 0.00 | 0.00 | 90 | 1011.4 |
| 20260509040332 | 11 | 144 | 0.0 | 0.0 | 0.00 | 0.00 | 0.00 | 88 | 1011.4 |
| 20260509035829 | 11 | 144 | 0.0 | 0.0 | 0.00 | 0.00 | 0.00 | 88 | 1011.5 |
| 20260509035326 | 11 | 144 | 0.0 | 0.0 | 0.00 | 0.00 | 0.00 | 89 | 1011.4 |
| 20260509034822 | 11 | 144 | 0.0 | 0.0 | 0.00 | 0.00 | 0.00 | 87 | 1011.4 |
| 20260509034320 | 11 | 144 | 0.0 | 0.0 | 0.00 | 0.00 | 0.00 | 86 | 1011.4 |
| 20260509033817 | 12 | 144 | 0.0 | 0.0 | 0.00 | 0.00 | 0.00 | 87 | 1011.6 |
| 20260509033314 | 12 | 144 | 0.0 | 0.0 | 0.00 | 0.00 | 0.00 | 87 | 1011.6 |
| 20260509032811 | 12 | 144 | 0.0 | 0.0 | 0.00 | 0.00 | 0.00 | 84 | 1011.6 |
| 20260509032308 | 12 | 144 | 0.0 | 0.0 | 0.00 | 0.00 | 0.00 | 84 | 1011.7 |
| 20260509031806 | 12 | 144 | 0.0 | 0.0 | 0.00 | 0.00 | 0.00 | 84 | 1011.7 |
| 20260509031303 | 12 | 144 | 0.0 | 0.0 | 0.00 | 0.00 | 0.00 | 84 | 1011.6 |
| 20260509030800 | 12 | 144 | 0.0 | 0.0 | 0.00 | 0.00 | 0.00 | 84 | 1011.7 |
| 20260509030258 | 12 | 144 | 0.0 | 0.0 | 0.00 | 0.00 | 0.00 | 84 | 1011.8 |
| 20260509025754 | 12 | 144 | 0.0 | 0.0 | 0.00 | 0.00 | 0.00 | 84 | 1012.0 |
| 20260509025250 | 12 | 144 | 0.0 | 0.0 | 0.00 | 0.00 | 0.00 | 85 | 1011.9 |
| 20260509024746 | 12 | 144 | 0.0 | 0.0 | 0.00 | 0.00 | 0.00 | 83 | 1011.9 |
| 20260509024242 | 12 | 144 | 0.0 | 0.0 | 0.00 | 0.00 | 0.00 | 82 | 1011.7 |
| 20260509023739 | 12 | 144 | 0.0 | 0.0 | 0.00 | 0.00 | 0.00 | 82 | 1012.0 |
| 20260509023236 | 12 | 144 | 0.0 | 0.0 | 0.00 | 0.00 | 0.00 | 83 | 1012.1 |
| 20260509022732 | 12 | 144 | 0.0 | 0.0 | 0.00 | 0.00 | 0.00 | 83 | 1012.0 |
| 20260509022230 | 12 | 144 | 0.0 | 0.0 | 0.00 | 0.00 | 0.00 | 85 | 1011.9 |
| 20260509021727 | 12 | 144 | 0.0 | 0.0 | 0.00 | 0.00 | 0.00 | 86 | 1011.9 |
| 20260509021224 | 12 | 144 | 0.0 | 0.0 | 0.00 | 0.00 | 0.00 | 82 | 1012.0 |
| 20260509020722 | 12 | 144 | 0.0 | 0.0 | 0.00 | 0.00 | 0.00 | 80 | 1011.8 |
| 20260509020219 | 12 | 144 | 0.0 | 0.0 | 0.00 | 0.00 | 0.00 | 81 | 1011.8 |
| 20260509015717 | 12 | 144 | 0.0 | 0.0 | 0.00 | 0.00 | 0.00 | 84 | 1011.9 |
| 20260509015215 | 12 | 144 | 0.0 | 0.0 | 0.00 | 0.00 | 0.00 | 83 | 1012.0 |
| 20260509014711 | 12 | 144 | 0.0 | 0.0 | 0.00 | 0.00 | 0.00 | 84 | 1011.8 |
| 20260509014208 | 12 | 144 | 0.0 | 0.0 | 0.00 | 0.00 | 0.00 | 81 | 1011.9 |
| 20260509013705 | 13 | 144 | 0.0 | 0.0 | 0.00 | 0.00 | 0.00 | 79 | 1011.7 |
| 20260509013200 | 13 | 144 | 0.0 | 0.0 | 0.00 | 0.00 | 0.00 | 81 | 1011.9 |
| 20260509012657 | 13 | 144 | 0.0 | 0.0 | 0.00 | 0.00 | 0.00 | 79 | 1011.8 |
| 20260509012154 | 13 | 144 | 0.0 | 0.0 | 0.00 | 0.00 | 0.00 | 78 | 1011.8 |
| 20260509011652 | 13 | 144 | 0.0 | 0.0 | 0.00 | 0.00 | 0.00 | 77 | 1011.7 |
| 20260509011149 | 13 | 144 | 0.0 | 0.0 | 0.00 | 0.00 | 0.00 | 77 | 1011.8 |
| 20260509010647 | 13 | 144 | 0.0 | 0.0 | 0.00 | 0.00 | 0.00 | 78 | 1011.9 |
| 20260509010143 | 13 | 144 | 0.0 | 0.0 | 0.00 | 0.00 | 0.00 | 77 | 1011.6 |
| 20260509005641 | 13 | 144 | 0.0 | 0.0 | 0.00 | 0.00 | 0.00 | 74 | 1011.8 |
| 20260509005137 | 13 | 144 | 0.0 | 0.0 | 0.00 | 0.00 | 0.00 | 72 | 1011.4 |
| 20260509004633 | 13 | 144 | 0.0 | 0.0 | 0.00 | 0.00 | 0.00 | 78 | 1011.5 |
| 20260509004130 | 13 | 144 | 0.0 | 0.0 | 0.00 | 0.00 | 0.00 | 77 | 1011.5 |
| 20260509003628 | 13 | 144 | 0.0 | 0.0 | 0.00 | 0.00 | 0.00 | 75 | 1011.4 |
| 20260509003125 | 13 | 143 | 0.0 | 0.0 | 0.00 | 0.00 | 0.00 | 74 | 1011.4 |
| 20260509002623 | 13 | 144 | 0.0 | 0.0 | 0.00 | 0.00 | 0.00 | 70 | 1011.4 |
| 20260509002120 | 14 | 144 | 0.0 | 0.0 | 0.00 | 0.00 | 0.00 | 73 | 1011.6 |
| 20260509001618 | 14 | 143 | 0.0 | 1.6 | 0.00 | 0.00 | 0.00 | 68 | 1011.5 |
| 20260509001113 | 14 | 143 | 0.0 | 1.6 | 0.00 | 0.00 | 0.00 | 67 | 1011.5 |
| 20260509000612 | 15 | 152 | 1.6 | 3.2 | 0.00 | 0.00 | 0.00 | 65 | 1011.4 |
| 20260509000108 | 16 | 315 | 0.0 | 3.2 | 0.00 | 0.00 | 0.00 | 60 | 1010.9 |
| 20260508235605 | 16 | 130 | 0.0 | 0.0 | 0.00 | 0.00 | 0.00 | 63 | 1010.7 |
| 20260508235101 | 17 | 184 | 0.0 | 3.2 | 0.00 | 0.00 | 0.00 | 60 | 1011.2 |
| 20260508234559 | 17 | 190 | 0.0 | 0.0 | 0.00 | 0.00 | 0.00 | 54 | 1011.3 |
| 20260508234055 | 17 | 150 | 0.0 | 3.2 | 0.00 | 0.00 | 0.00 | 57 | 1011.5 |
| 20260508233550 | 18 | 317 | 1.6 | 3.2 | 0.00 | 0.00 | 0.00 | 42 | 1011.3 |
| 20260508233047 | 18 | 252 | 1.6 | 3.2 | 0.00 | 0.00 | 0.00 | 53 | 1011.2 |
| 20260508232543 | 18 | 323 | 0.0 | 3.2 | 0.00 | 0.00 | 0.00 | 45 | 1011.1 |
| 20260508232040 | 19 | 224 | 1.6 | 3.2 | 0.00 | 0.00 | 0.00 | 42 | 1011.2 |
| 20260508231538 | 19 | 271 | 1.6 | 4.8 | 0.00 | 0.00 | 0.00 | 40 | 1011.3 |
| 20260508231035 | 19 | 298 | 6.4 | 6.4 | 0.00 | 0.00 | 0.00 | 40 | 1011.4 |
| 20260508230532 | 19 | 309 | 6.4 | 6.4 | 0.00 | 0.00 | 0.00 | 38 | 1011.3 |
| 20260508230028 | 19 | 314 | 4.8 | 6.4 | 0.00 | 0.00 | 0.00 | 40 | 1011.2 |
| 20260508225525 | 19 | 220 | 3.2 | 6.4 | 0.00 | 0.00 | 0.00 | 43 | 1011.2 |
| 20260508225022 | 20 | 236 | 1.6 | 4.8 | 0.00 | 0.00 | 0.00 | 39 | 1010.9 |
| 20260508224520 | 20 | 312 | 4.8 | 9.7 | 0.00 | 0.00 | 0.00 | 37 | 1011.3 |
| 20260508224017 | 20 | 219 | 3.2 | 6.4 | 0.00 | 0.00 | 0.00 | 38 | 1011.2 |
| 20260508223515 | 19 | 307 | 8.0 | 12.9 | 0.00 | 0.00 | 0.00 | 38 | 1011.3 |
| 20260508223012 | 20 | 275 | 4.8 | 12.9 | 0.00 | 0.00 | 0.00 | 37 | 1011.2 |
| 20260508222509 | 20 | 258 | 0.0 | 1.6 | 0.00 | 0.00 | 0.00 | 39 | 1011.5 |
| 20260508222006 | 19 | 231 | 3.2 | 4.8 | 0.00 | 0.00 | 0.00 | 38 | 1011.3 |
| 20260508221502 | 19 | 243 | 8.0 | 9.7 | 0.00 | 0.00 | 0.00 | 39 | 1011.5 |
| 20260508220958 | 19 | 260 | 0.0 | 1.6 | 0.00 | 0.00 | 0.00 | 39 | 1011.5 |
| 20260508220455 | 19 | 270 | 3.2 | 4.8 | 0.00 | 0.00 | 0.00 | 39 | 1011.3 |
| 20260508215951 | 19 | 258 | 6.4 | 11.3 | 0.00 | 0.00 | 0.00 | 37 | 1011.5 |
| 20260508215448 | 20 | 276 | 9.7 | 12.9 | 0.00 | 0.00 | 0.00 | 38 | 1011.2 |
| 20260508214944 | 21 | 311 | 3.2 | 4.8 | 0.00 | 0.00 | 0.00 | 34 | 1011.4 |
| 20260508214443 | 20 | 309 | 4.8 | 4.8 | 0.00 | 0.00 | 0.00 | 36 | 1011.3 |
| 20260508213938 | 19 | 295 | 3.2 | 9.7 | 0.00 | 0.00 | 0.00 | 39 | 1011.3 |
| 20260508213436 | 19 | 302 | 4.8 | 9.7 | 0.00 | 0.00 | 0.00 | 39 | 1011.3 |
| 20260508212931 | 19 | 253 | 3.2 | 11.3 | 0.00 | 0.00 | 0.00 | 40 | 1011.3 |
| 20260508212428 | 20 | 305 | 6.4 | 20.9 | 0.00 | 0.00 | 0.00 | 37 | 1011.6 |
| 20260508211924 | 21 | 340 | 3.2 | 14.5 | 0.00 | 0.00 | 0.00 | 37 | 1011.6 |
| 20260508211420 | 21 | 322 | 6.4 | 12.9 | 0.00 | 0.00 | 0.00 | 38 | 1011.5 |
| 20260508210917 | 20 | 310 | 14.5 | 20.9 | 0.00 | 0.00 | 0.00 | 36 | 1011.5 |
| 20260508210414 | 20 | 174 | 3.2 | 9.7 | 0.00 | 0.00 | 0.00 | 38 | 1011.4 |
| 20260508205910 | 20 | 312 | 6.4 | 11.3 | 0.00 | 0.00 | 0.00 | 35 | 1011.7 |
| 20260508205407 | 20 | 311 | 9.7 | 14.5 | 0.00 | 0.00 | 0.00 | 38 | 1011.8 |
| 20260508204903 | 20 | 200 | 4.8 | 14.5 | 0.00 | 0.00 | 0.00 | 39 | 1011.8 |
| 20260508204401 | 20 | 305 | 12.9 | 17.7 | 0.00 | 0.00 | 0.00 | 38 | 1011.6 |
| 20260508203856 | 21 | 301 | 6.4 | 11.3 | 0.00 | 0.00 | 0.00 | 43 | 1011.7 |
| 20260508203353 | 20 | 48 | 4.8 | 16.1 | 0.00 | 0.00 | 0.00 | 35 | 1012.0 |
| 20260508202848 | 21 | 315 | 9.7 | 12.9 | 0.00 | 0.00 | 0.00 | 39 | 1012.0 |
| 20260508202346 | 20 | 237 | 6.4 | 6.4 | 0.00 | 0.00 | 0.00 | 37 | 1012.4 |
| 20260508201843 | 20 | 309 | 3.2 | 6.4 | 0.00 | 0.00 | 0.00 | 36 | 1012.3 |
| 20260508201340 | 20 | 247 | 8.0 | 11.3 | 0.00 | 0.00 | 0.00 | 39 | 1012.4 |
| 20260508200836 | 20 | 244 | 9.7 | 11.3 | 0.00 | 0.00 | 0.00 | 39 | 1012.5 |
| 20260508200333 | 21 | 287 | 6.4 | 6.4 | 0.00 | 0.00 | 0.00 | 36 | 1012.5 |
| 20260508195829 | 20 | 313 | 1.6 | 3.2 | 0.00 | 0.00 | 0.00 | 39 | 1012.5 |
| 20260508195326 | 19 | 160 | 3.2 | 9.7 | 0.00 | 0.00 | 0.00 | 40 | 1012.9 |
| 20260508194822 | 18 | 309 | 4.8 | 9.7 | 0.00 | 0.00 | 0.00 | 40 | 1012.9 |
| 20260508194319 | 18 | 269 | 6.4 | 11.3 | 0.00 | 0.00 | 0.00 | 40 | 1013.2 |
| 20260508193816 | 18 | 297 | 4.8 | 6.4 | 0.00 | 0.00 | 0.00 | 43 | 1013.2 |
| 20260508193313 | 19 | 307 | 12.9 | 16.1 | 0.00 | 0.00 | 0.00 | 40 | 1013.3 |
| 20260508192808 | 20 | 316 | 8.0 | 17.7 | 0.00 | 0.00 | 0.00 | 38 | 1013.1 |
| 20260508192306 | 19 | 175 | 6.4 | 14.5 | 0.00 | 0.00 | 0.00 | 39 | 1013.2 |
| 20260508191803 | 19 | 314 | 3.2 | 12.9 | 0.00 | 0.00 | 0.00 | 38 | 1013.3 |
| 20260508191300 | 19 | 311 | 12.9 | 17.7 | 0.00 | 0.00 | 0.00 | 43 | 1013.3 |
| 20260508190757 | 19 | 241 | 4.8 | 6.4 | 0.00 | 0.00 | 0.00 | 40 | 1013.6 |
| 20260508190253 | 19 | 303 | 6.4 | 22.5 | 0.00 | 0.00 | 0.00 | 41 | 1013.6 |
| 20260508185749 | 19 | 248 | 9.7 | 11.3 | 0.00 | 0.00 | 0.00 | 40 | 1013.9 |
| 20260508185247 | 19 | 228 | 9.7 | 14.5 | 0.00 | 0.00 | 0.00 | 46 | 1013.8 |
| 20260508184744 | 20 | 311 | 9.7 | 20.9 | 0.00 | 0.00 | 0.00 | 45 | 1014.0 |
| 20260508184241 | 20 | 319 | 6.4 | 6.4 | 0.00 | 0.00 | 0.00 | 44 | 1014.1 |
| 20260508183738 | 19 | 313 | 1.6 | 9.7 | 0.00 | 0.00 | 0.00 | 43 | 1013.9 |
| 20260508183234 | 19 | 301 | 3.2 | 9.7 | 0.00 | 0.00 | 0.00 | 39 | 1013.9 |
| 20260508182730 | 18 | 267 | 9.7 | 20.9 | 0.00 | 0.00 | 0.00 | 41 | 1014.2 |
| 20260508182227 | 18 | 312 | 11.3 | 20.9 | 0.00 | 0.00 | 0.00 | 41 | 1014.3 |
| 20260508181723 | 18 | 308 | 12.9 | 24.1 | 0.00 | 0.00 | 0.00 | 43 | 1014.4 |
| 20260508181220 | 18 | 314 | 12.9 | 20.9 | 0.00 | 0.00 | 0.00 | 45 | 1014.6 |
| 20260508180717 | 18 | 292 | 9.7 | 14.5 | 0.00 | 0.00 | 0.00 | 43 | 1014.5 |
| 20260508180214 | 18 | 305 | 9.7 | 14.5 | 0.00 | 0.00 | 0.00 | 46 | 1014.4 |
| 20260508175710 | 18 | 233 | 9.7 | 14.5 | 0.00 | 0.00 | 0.00 | 41 | 1014.6 |
| 20260508175207 | 18 | 178 | 6.4 | 11.3 | 0.00 | 0.00 | 0.00 | 39 | 1014.7 |
| 20260508174705 | 17 | 298 | 4.8 | 14.5 | 0.00 | 0.00 | 0.00 | 42 | 1014.6 |
| 20260508174201 | 18 | 354 | 1.6 | 11.3 | 0.00 | 0.00 | 0.00 | 43 | 1014.5 |
| 20260508173658 | 18 | 281 | 4.8 | 9.7 | 0.00 | 0.00 | 0.00 | 41 | 1014.6 |
| 20260508173154 | 18 | 251 | 9.7 | 12.9 | 0.00 | 0.00 | 0.00 | 45 | 1014.7 |
| 20260508172652 | 17 | 250 | 3.2 | 4.8 | 0.00 | 0.00 | 0.00 | 43 | 1014.7 |
| 20260508172149 | 17 | 309 | 6.4 | 16.1 | 0.00 | 0.00 | 0.00 | 43 | 1014.9 |
| 20260508171645 | 17 | 248 | 8.0 | 24.1 | 0.00 | 0.00 | 0.00 | 44 | 1015.1 |
| 20260508171141 | 17 | 256 | 8.0 | 20.9 | 0.00 | 0.00 | 0.00 | 43 | 1015.2 |
| 20260508170638 | 18 | 329 | 6.4 | 11.3 | 0.00 | 0.00 | 0.00 | 45 | 1015.2 |
| 20260508170136 | 18 | 295 | 6.4 | 17.7 | 0.00 | 0.00 | 0.00 | 46 | 1015.3 |
| 20260508165633 | 17 | 325 | 9.7 | 24.1 | 0.00 | 0.00 | 0.00 | 45 | 1015.5 |
| 20260508165131 | 17 | 326 | 11.3 | 16.1 | 0.00 | 0.00 | 0.00 | 46 | 1015.7 |
| 20260508164627 | 18 | 318 | 17.7 | 22.5 | 0.00 | 0.00 | 0.00 | 41 | 1016.0 |
| 20260508164123 | 17 | 298 | 8.0 | 11.3 | 0.00 | 0.00 | 0.00 | 43 | 1015.8 |
| 20260508163621 | 16 | 184 | 6.4 | 12.9 | 0.00 | 0.00 | 0.00 | 44 | 1016.0 |
| 20260508163117 | 16 | 272 | 6.4 | 25.7 | 0.00 | 0.00 | 0.00 | 45 | 1016.0 |
| 20260508162614 | 17 | 299 | 1.6 | 11.3 | 0.00 | 0.00 | 0.00 | 46 | 1016.0 |
| 20260508162112 | 16 | 315 | 12.9 | 16.1 | 0.00 | 0.00 | 0.00 | 45 | 1016.0 |
| 20260508161608 | 16 | 309 | 8.0 | 14.5 | 0.00 | 0.00 | 0.00 | 46 | 1016.2 |
| 20260508161106 | 16 | 316 | 4.8 | 16.1 | 0.00 | 0.00 | 0.00 | 43 | 1016.2 |
| 20260508160604 | 16 | 257 | 9.7 | 14.5 | 0.00 | 0.00 | 0.00 | 46 | 1016.4 |
| 20260508160100 | 16 | 312 | 12.9 | 14.5 | 0.00 | 0.00 | 0.00 | 46 | 1016.1 |
| 20260508155557 | 16 | 312 | 9.7 | 14.5 | 0.00 | 0.00 | 0.00 | 43 | 1016.1 |
| 20260508155054 | 16 | 312 | 9.7 | 25.7 | 0.00 | 0.00 | 0.00 | 46 | 1016.2 |
| 20260508154551 | 17 | 323 | 9.7 | 14.5 | 0.00 | 0.00 | 0.00 | 41 | 1016.4 |
| 20260508154048 | 17 | 254 | 8.0 | 9.7 | 0.00 | 0.00 | 0.00 | 42 | 1016.2 |
| 20260508153545 | 16 | 314 | 12.9 | 25.7 | 0.00 | 0.00 | 0.00 | 42 | 1016.3 |
| 20260508153041 | 16 | 235 | 6.4 | 16.1 | 0.00 | 0.00 | 0.00 | 43 | 1016.4 |
| 20260508152539 | 16 | 313 | 9.7 | 20.9 | 0.00 | 0.00 | 0.00 | 45 | 1016.4 |
| 20260508152034 | 16 | 213 | 4.8 | 12.9 | 0.00 | 0.00 | 0.00 | 45 | 1016.1 |
| 20260508151531 | 15 | 315 | 12.9 | 22.5 | 0.00 | 0.00 | 0.00 | 48 | 1016.2 |
| 20260508151028 | 16 | 313 | 14.5 | 20.9 | 0.00 | 0.00 | 0.00 | 47 | 1016.4 |
| 20260508150525 | 16 | 297 | 3.2 | 6.4 | 0.00 | 0.00 | 0.00 | 48 | 1016.3 |
| 20260508150020 | 15 | 311 | 12.9 | 14.5 | 0.00 | 0.00 | 0.00 | 48 | 1016.3 |
| 20260508145518 | 15 | 312 | 16.1 | 22.5 | 0.00 | 0.00 | 0.00 | 48 | 1016.4 |
| 20260508145014 | 15 | 248 | 9.7 | 17.7 | 0.00 | 0.00 | 0.00 | 47 | 1016.5 |
| 20260508144512 | 15 | 222 | 11.3 | 16.1 | 0.00 | 0.00 | 0.00 | 45 | 1016.3 |
| 20260508144009 | 14 | 313 | 3.2 | 20.9 | 0.00 | 0.00 | 0.00 | 48 | 1016.4 |